Time;durP1;ratioP1;P1;durP2;ratioP2;P2;SDS_P1;SDS_P2;PMS_P1;PMS_P2;Temp;Humidity;BMP_temperature;BMP_pressure;BME280_temperature;BME280_humidity;BME280_pressure;Samples;Min_cycle;Max_cycle;Signal;HPM_P1;HPM_P2
2021/06/18 00:02:26;;;;;;;;;;;;;;;;;;10076670;29;19967;-63
2021/06/18 00:07:24;;;;;;;;;;;;;;;;;;10075852;29;19930;-63
2021/06/18 00:12:22;;;;;;;;;;;;;;;;;;10076324;29;19961;-63
2021/06/18 00:17:20;;;;;;;;;;;;;;;;;;10076324;29;20380;-63
2021/06/18 00:22:18;;;;;;;;;;;;;;;;;;10076153;29;19977;-63
2021/06/18 00:27:16;;;;;;;;;;;;;;;;;;10076372;29;19923;-63
2021/06/18 00:32:14;;;;;;;;;;;;;;;;;;10075811;29;19972;-64
2021/06/18 00:37:12;;;;;;;;;;;;;;;;;;10075979;29;19965;-63
2021/06/18 00:42:10;;;;;;;;;;;;;;;;;;10082562;29;19930;-63
2021/06/18 00:47:08;;;;;;;;;;;;;;;;;;10083386;29;19922;-62
2021/06/18 00:52:06;;;;;;;;;;;;;;;;;;10083230;28;19973;-63
2021/06/18 00:57:04;;;;;;;;;;;;;;;;;;10082792;29;19957;-63
2021/06/18 01:02:02;;;;;;;;;;;;;;;;;;10082880;29;19969;-63
2021/06/18 01:07:00;;;;;;;;;;;;;;;;;;10082817;28;19958;-63
2021/06/18 01:11:59;;;;;;;;;;;;;;;;;;10082508;29;19958;-63
2021/06/18 01:16:57;;;;;;;;;;;;;;;;;;10081797;29;20359;-63
2021/06/18 01:21:55;;;;;;;;;;;;;;;;;;10064907;29;20135;-63
2021/06/18 01:26:53;;;;;;;;;;;;;;;;;;10081859;29;19971;-63
2021/06/18 01:31:51;;;;;;;;;;;;;;;;;;10081722;29;20388;-63
2021/06/18 01:36:49;;;;;;;;;;;;;;;;;;10081771;29;20348;-63
2021/06/18 01:41:47;;;;;;;;;;;;;;;;;;10081558;29;19957;-63
2021/06/18 01:46:45;;;;;;;;;;;;;;;;;;10080487;29;19922;-63
2021/06/18 01:51:43;;;;;;;;;;;;;;;;;;10080690;28;19964;-63
2021/06/18 01:56:41;;;;;;;;;;;;;;;;;;10079866;29;19933;-63
2021/06/18 02:01:39;;;;;;;;;;;;;;;;;;10062999;29;19922;-63
2021/06/18 02:06:37;;;;;;;;;;;;;;;;;;10080372;29;20308;-63
2021/06/18 02:11:35;;;;;;;;;;;;;;;;;;10080232;28;20339;-63
2021/06/18 02:16:33;;;;;;;;;;;;;;;;;;10079684;29;20375;-63
2021/06/18 02:21:31;;;;;;;;;;;;;;;;;;10080024;29;19953;-63
2021/06/18 02:26:29;;;;;;;;;;;;;;;;;;10079817;29;19930;-63
2021/06/18 02:31:27;;;;;;;;;;;;;;;;;;10079606;29;19969;-63
2021/06/18 02:36:25;;;;;;;;;;;;;;;;;;10079152;29;20390;-61
2021/06/18 02:41:23;;;;;;;;;;;;;;;;;;10079085;29;19972;-60
2021/06/18 02:46:21;;;;;;;;;;;;;;;;;;10061743;29;19927;-61
2021/06/18 02:51:19;;;;;;;;;;;;;;;;;;10078511;29;19980;-60
2021/06/18 02:56:17;;;;;;;;;;;;;;;;;;10078384;28;19937;-60
2021/06/18 03:01:15;;;;;;;;;;;;;;;;;;10082195;28;19972;-60
2021/06/18 03:06:17;;;;;;;;;;;;;;;;;;10105649;28;19970;-61
2021/06/18 03:11:15;;;;;;;;;;;;;;;;;;10094908;28;19965;-60
2021/06/18 03:16:13;;;;;;;;;;;;;;;;;;10094196;28;19960;-60
2021/06/18 03:21:13;;;;;;;;;;;;;;;;;;10075334;29;20379;-60
2021/06/18 03:26:11;;;;;;;;;;;;;;;;;;10094698;28;19957;-60
2021/06/18 03:31:10;;;;;;;;;;;;;;;;;;10076537;29;19972;-60
2021/06/18 03:36:08;;;;;;;;;;;;;;;;;;10083357;28;19929;-61
2021/06/18 03:41:06;;;;;;;;;;;;;;;;;;10084411;28;19950;-59
2021/06/18 03:46:05;;;;;;;;;;;;;;;;;;10072728;29;20038;-60
2021/06/18 03:51:03;;;;;;;;;;;;;;;;;;10076102;29;20506;-59
2021/06/18 03:56:01;;;;;;;;;;;;;;;;;;10088260;28;19974;-60
2021/06/18 04:00:59;;;;;;;;;;;;;;;;;;10075518;29;19958;-61
2021/06/18 04:05:57;;;;;;;;;;;;;;;;;;10075745;29;19964;-61
2021/06/18 04:10:55;;;;;;;;;;;;;;;;;;10075495;29;19973;-59
2021/06/18 04:15:53;;;;;;;;;;;;;;;;;;10064021;29;19922;-59
2021/06/18 04:20:51;;;;;;;;;;;;;;;;;;10083760;29;19923;-58
2021/06/18 04:25:49;;;;;;;;;;;;;;;;;;10085107;29;19968;-58
2021/06/18 04:30:47;;;;;;;;;;;;;;;;;;10083123;29;19961;-59
2021/06/18 04:35:45;;;;;;;;;;;;;;;;;;10084010;29;19958;-60
2021/06/18 04:40:43;;;;;;;;;;;;;;;;;;10084548;28;19922;-60
2021/06/18 04:45:41;;;;;;;;;;;;;;;;;;10082896;29;19937;-59
2021/06/18 04:50:39;;;;;;;;;;;;;;;;;;10083772;29;19965;-59
2021/06/18 04:55:37;;;;;;;;;;;;;;;;;;10083611;28;19922;-58
2021/06/18 05:00:35;;;;;;;;;;;;;;;;;;10083103;28;19930;-59
2021/06/18 05:05:33;;;;;;;;;;;;;;;;;;10082677;29;19972;-59
2021/06/18 05:10:31;;;;;;;;;;;;;;;;;;10082295;29;19926;-59
2021/06/18 05:15:29;;;;;;;;;;;;;;;;;;10082537;29;19962;-59
2021/06/18 05:20:27;;;;;;;;;;;;;;;;;;10081919;29;19953;-59
2021/06/18 05:25:25;;;;;;;;;;;;;;;;;;10081770;28;19965;-59
2021/06/18 05:30:23;;;;;;;;;;;;;;;;;;10082689;29;19929;-58
2021/06/18 05:35:22;;;;;;;;;;;;;;;;;;10081919;29;19973;-59
2021/06/18 05:40:20;;;;;;;;;;;;;;;;;;10082360;28;19976;-59
2021/06/18 05:45:18;;;;;;;;;;;;;;;;;;10081974;28;19968;-59
2021/06/18 05:50:16;;;;;;;;;;;;;;;;;;10081149;29;19976;-59
2021/06/18 05:55:14;;;;;;;;;;;;;;;;;;10081683;29;19965;-59
2021/06/18 06:00:12;;;;;;;;;;;;;;;;;;10081731;29;19927;-60
2021/06/18 06:05:19;;;;;;;;;;;;;;;;;;10080573;29;20248;-59
2021/06/18 06:10:17;;;;;;;;;;;;;;;;;;10080527;29;20426;-60
2021/06/18 06:15:15;;;;;;;;;;;;;;;;;;10080761;29;19965;-60
2021/06/18 06:20:13;;;;;;;;;;;;;;;;;;10079468;29;19923;-60
2021/06/18 06:25:12;;;;;;;;;;;;;;;;;;10079963;29;20399;-60
2021/06/18 06:30:10;;;;;;;;;;;;;;;;;;10079862;29;19976;-60
2021/06/18 06:35:08;;;;;;;;;;;;;;;;;;10079214;29;19969;-60
2021/06/18 06:40:07;;;;;;;;;;;;;;;;;;10078472;29;19930;-60
2021/06/18 06:45:05;;;;;;;;;;;;;;;;;;10079075;29;19965;-60
2021/06/18 06:50:03;;;;;;;;;;;;;;;;;;10078875;29;19961;-59
2021/06/18 06:55:01;;;;;;;;;;;;;;;;;;10078534;29;19958;-59
2021/06/18 06:59:59;;;;;;;;;;;;;;;;;;10078210;29;19929;-59
2021/06/18 07:04:57;;;;;;;;;;;;;;;;;;10078183;29;19926;-59
2021/06/18 07:09:55;;;;;;;;;;;;;;;;;;10078097;29;19929;-59
2021/06/18 07:14:55;;;;;;;;;;;;;;;;;;10077410;29;19961;-59
2021/06/18 07:19:54;;;;;;;;;;;;;;;;;;10076951;29;19930;-59
2021/06/18 07:24:52;;;;;;;;;;;;;;;;;;10077533;29;19926;-60
2021/06/18 07:29:50;;;;;;;;;;;;;;;;;;10077505;29;19966;-59
2021/06/18 07:34:48;;;;;;;;;;;;;;;;;;10077153;28;19976;-60
2021/06/18 07:39:46;;;;;;;;;;;;;;;;;;10077335;29;20376;-59
2021/06/18 07:44:57;;;;;;;;;;;;;;;;;;10077785;29;19930;-60
2021/06/18 07:49:55;;;;;;;;;;;;;;;;;;10076941;29;19945;-60
2021/06/18 07:54:55;;;;;;;;;;;;;;;;;;10077461;29;19962;-60
2021/06/18 07:59:53;;;;;;;;;;;;;;;;;;10077445;29;19922;-60
2021/06/18 08:04:52;;;;;;;;;;;;;;;;;;10076813;29;20399;-59
2021/06/18 08:09:50;;;;;;;;;;;;;;;;;;10076937;28;20311;-59
2021/06/18 08:14:48;;;;;;;;;;;;;;;;;;10076401;29;20371;-59
2021/06/18 08:19:46;;;;;;;;;;;;;;;;;;10076364;29;20371;-59
2021/06/18 08:24:44;;;;;;;;;;;;;;;;;;10076699;29;20280;-60
2021/06/18 08:29:42;;;;;;;;;;;;;;;;;;10076851;28;19977;-60
2021/06/18 08:34:40;;;;;;;;;;;;;;;;;;10076707;28;19968;-61
2021/06/18 08:39:38;;;;;;;;;;;;;;;;;;10076279;29;19969;-59
2021/06/18 08:44:36;;;;;;;;;;;;;;;;;;10075755;29;19957;-60
2021/06/18 08:49:35;;;;;;;;;;;;;;;;;;10075873;29;19922;-60
2021/06/18 08:54:42;;;;;;;;;;;;;;;;;;10074912;29;20380;-60
2021/06/18 08:59:40;;;;;;;;;;;;;;;;;;10077397;28;19930;-60
2021/06/18 09:04:38;;;;;;;;;;;;;;;;;;10083567;29;19968;-60
2021/06/18 09:09:36;;;;;;;;;;;;;;;;;;10082682;29;19929;-60
2021/06/18 09:14:34;;;;;;;;;;;;;;;;;;10082984;29;19966;-60
2021/06/18 09:19:32;;;;;;;;;;;;;;;;;;10082341;28;19961;-60
2021/06/18 09:24:30;;;;;;;;;;;;;;;;;;10082683;29;19922;-60
2021/06/18 09:29:30;;;;;;;;;;;;;;;;;;10064376;29;19930;-60
2021/06/18 09:34:28;;;;;;;;;;;;;;;;;;10081644;29;19974;-60
2021/06/18 09:39:26;;;;;;;;;;;;;;;;;;10081497;29;19953;-60
2021/06/18 09:44:27;;;;;;;;;;;;;;;;;;10080709;29;19976;-60
2021/06/18 09:49:25;;;;;;;;;;;;;;;;;;10081009;29;20395;-60
2021/06/18 09:54:23;;;;;;;;;;;;;;;;;;10081006;29;19971;-60
2021/06/18 09:59:21;;;;;;;;;;;;;;;;;;10080699;29;19922;-60
2021/06/18 10:04:19;;;;;;;;;;;;;;;;;;10080509;29;20386;-60
2021/06/18 10:09:17;;;;;;;;;;;;;;;;;;10080549;29;19926;-60
2021/06/18 10:14:15;;;;;;;;;;;;;;;;;;10080221;28;19973;-60
2021/06/18 10:19:13;;;;;;;;;;;;;;;;;;10080299;29;19922;-60
2021/06/18 10:24:11;;;;;;;;;;;;;;;;;;10079806;29;20357;-61
2021/06/18 10:29:09;;;;;;;;;;;;;;;;;;10079650;28;19956;-59
2021/06/18 10:34:07;;;;;;;;;;;;;;;;;;10079342;29;19970;-60
2021/06/18 10:39:05;;;;;;;;;;;;;;;;;;10079806;29;19961;-59
2021/06/18 10:44:03;;;;;;;;;;;;;;;;;;10079579;29;20333;-60
2021/06/18 10:49:01;;;;;;;;;;;;;;;;;;10079468;29;20069;-60
2021/06/18 10:54:02;;;;;;;;;;;;;;;;;;10079331;29;19969;-59
2021/06/18 10:59:00;;;;;;;;;;;;;;;;;;10079063;29;19923;-59
2021/06/18 11:03:58;;;;;;;;;;;;;;;;;;10079040;29;19929;-60
2021/06/18 11:08:55;;;;;;;;;;;;;;;;;;10077921;29;20240;-60
2021/06/18 11:13:53;;;;;;;;;;;;;;;;;;10077910;29;19969;-60
2021/06/18 11:18:51;;;;;;;;;;;;;;;;;;10077320;29;19966;-61
2021/06/18 11:23:49;;;;;;;;;;;;;;;;;;10078038;28;19933;-60
2021/06/18 11:28:47;;;;;;;;;;;;;;;;;;10078102;28;20359;-60
2021/06/18 11:33:45;;;;;;;;;;;;;;;;;;10077378;29;19957;-60
2021/06/18 11:38:43;;;;;;;;;;;;;;;;;;10077335;29;20291;-61
2021/06/18 11:43:41;;;;;;;;;;;;;;;;;;10076989;29;19964;-60
2021/06/18 11:48:40;;;;;;;;;;;;;;;;;;10076478;29;19926;-61
2021/06/18 11:53:38;;;;;;;;;;;;;;;;;;10077238;29;19965;-60
2021/06/18 11:58:36;;;;;;;;;;;;;;;;;;10075814;29;19922;-60
2021/06/18 12:03:34;;;;;;;;;;;;;;;;;;10077085;29;19961;-60
2021/06/18 12:08:32;;;;;;;;;;;;;;;;;;10075832;29;20403;-61
2021/06/18 12:13:30;;;;;;;;;;;;;;;;;;10075659;29;19965;-61
2021/06/18 12:18:30;;;;;;;;;;;;;;;;;;10075272;29;19991;-60
2021/06/18 12:23:28;;;;;;;;;;;;;;;;;;10076728;29;19972;-60
2021/06/18 12:28:26;;;;;;;;;;;;;;;;;;10076245;29;19972;-60
2021/06/18 12:33:24;;;;;;;;;;;;;;;;;;10076320;28;19966;-60
2021/06/18 12:38:22;;;;;;;;;;;;;;;;;;10083277;29;20331;-59
2021/06/18 12:43:20;;;;;;;;;;;;;;;;;;10083905;28;19961;-60
2021/06/18 12:48:17;;;;;;;;;;;;;;;;;;10083186;29;20380;-59
2021/06/18 12:53:16;;;;;;;;;;;;;;;;;;10082585;29;19969;-59
2021/06/18 12:58:13;;;;;;;;;;;;;;;;;;10083290;28;20375;-59
2021/06/18 13:03:11;;;;;;;;;;;;;;;;;;10082801;29;19922;-60
2021/06/18 13:08:11;;;;;;;;;;;;;;;;;;10082630;29;19931;-59
2021/06/18 13:13:09;;;;;;;;;;;;;;;;;;10082648;29;20368;-59
2021/06/18 13:18:07;;;;;;;;;;;;;;;;;;10081634;28;20032;-60
2021/06/18 13:23:08;;;;;;;;;;;;;;;;;;10082044;29;19922;-60
2021/06/18 13:28:06;;;;;;;;;;;;;;;;;;10081880;29;20398;-60
2021/06/18 13:33:04;;;;;;;;;;;;;;;;;;10082101;29;19929;-59
2021/06/18 13:38:02;;;;;;;;;;;;;;;;;;10081177;29;20376;-61
2021/06/18 13:43:00;;;;;;;;;;;;;;;;;;10081479;29;19973;-60
2021/06/18 13:47:59;;;;;;;;;;;;;;;;;;10081102;28;20060;-60
2021/06/18 13:52:57;;;;;;;;;;;;;;;;;;10080629;29;19968;-60
2021/06/18 13:57:55;;;;;;;;;;;;;;;;;;10081150;29;19922;-60
2021/06/18 14:02:54;;;;;;;;;;;;;;;;;;10081052;29;19933;-60
2021/06/18 14:07:52;;;;;;;;;;;;;;;;;;10079991;29;19957;-60
2021/06/18 14:12:50;;;;;;;;;;;;;;;;;;10080210;29;19969;-60
2021/06/18 14:17:51;;;;;;;;;;;;;;;;;;10079431;29;19958;-60
2021/06/18 14:22:49;;;;;;;;;;;;;;;;;;10080084;29;20383;-60
2021/06/18 14:27:47;;;;;;;;;;;;;;;;;;10061566;29;20289;-60
2021/06/18 14:32:45;;;;;;;;;;;;;;;;;;10079028;29;20320;-60
2021/06/18 14:37:46;;;;;;;;;;;;;;;;;;10079166;29;19962;-59
2021/06/18 14:42:43;;;;;;;;;;;;;;;;;;10078721;29;20307;-60
2021/06/18 14:47:41;;;;;;;;;;;;;;;;;;10078254;29;19965;-60
2021/06/18 14:52:40;;;;;;;;;;;;;;;;;;10078796;29;19922;-60
2021/06/18 14:57:38;;;;;;;;;;;;;;;;;;10077176;28;19961;-60
2021/06/18 15:02:35;;;;;;;;;;;;;;;;;;10077691;29;19929;-62
2021/06/18 15:07:34;;;;;;;;;;;;;;;;;;10076897;29;19945;-62
2021/06/18 15:12:32;;;;;;;;;;;;;;;;;;10076388;28;20375;-61
2021/06/18 15:17:30;;;;;;;;;;;;;;;;;;10081242;28;20008;-63
2021/06/18 15:22:28;;;;;;;;;;;;;;;;;;10084966;28;19961;-62
2021/06/18 15:27:26;;;;;;;;;;;;;;;;;;10088602;28;20412;-61
2021/06/18 15:32:23;;;;;;;;;;;;;;;;;;10087785;28;20326;-63
2021/06/18 15:37:21;;;;;;;;;;;;;;;;;;10088902;28;19969;-62
2021/06/18 15:42:19;;;;;;;;;;;;;;;;;;10083793;28;19957;-61
2021/06/18 15:47:18;;;;;;;;;;;;;;;;;;10082517;28;19961;-64
2021/06/18 15:52:16;;;;;;;;;;;;;;;;;;10088787;28;19922;-62
2021/06/18 15:57:14;;;;;;;;;;;;;;;;;;10082285;28;20516;-63
2021/06/18 16:02:12;;;;;;;;;;;;;;;;;;10089105;28;20074;-62
2021/06/18 16:07:10;;;;;;;;;;;;;;;;;;10075254;29;19958;-62
2021/06/18 16:12:08;;;;;;;;;;;;;;;;;;10075010;29;19929;-61
2021/06/18 16:17:05;;;;;;;;;;;;;;;;;;10073874;29;19964;-62
2021/06/18 16:22:03;;;;;;;;;;;;;;;;;;10086156;28;19953;-61
2021/06/18 16:27:01;;;;;;;;;;;;;;;;;;10094477;28;19968;-61
2021/06/18 16:31:59;;;;;;;;;;;;;;;;;;10078984;28;19965;-60
2021/06/18 16:36:57;;;;;;;;;;;;;;;;;;10076585;28;20352;-61
2021/06/18 16:41:56;;;;;;;;;;;;;;;;;;10082542;28;19945;-63
2021/06/18 16:46:54;;;;;;;;;;;;;;;;;;10109117;28;20411;-64
2021/06/18 16:51:52;;;;;;;;;;;;;;;;;;10109890;28;19976;-63
2021/06/18 16:56:50;;;;;;;;;;;;;;;;;;10111705;28;19957;-63
2021/06/18 17:01:54;;;;;;;;;;;;;;;;;;10114592;28;19926;-63
2021/06/18 17:06:56;;;;;;;;;;;;;;;;;;10114400;28;19941;-63
2021/06/18 17:11:54;;;;;;;;;;;;;;;;;;10114129;28;19984;-62
2021/06/18 17:16:52;;;;;;;;;;;;;;;;;;10091532;28;19999;-63
2021/06/18 17:21:50;;;;;;;;;;;;;;;;;;10104261;28;19929;-63
2021/06/18 17:26:50;;;;;;;;;;;;;;;;;;10105337;28;19965;-61
2021/06/18 17:31:48;;;;;;;;;;;;;;;;;;10089993;28;19957;-63
2021/06/18 17:36:46;;;;;;;;;;;;;;;;;;10103207;28;19972;-62
2021/06/18 17:41:44;;;;;;;;;;;;;;;;;;10120430;28;19949;-62
2021/06/18 17:46:42;;;;;;;;;;;;;;;;;;10119585;28;19973;-61
2021/06/18 17:51:40;;;;;;;;;;;;;;;;;;10120144;28;19962;-62
2021/06/18 17:56:38;;;;;;;;;;;;;;;;;;10119975;28;19961;-61
2021/06/18 18:01:36;;;;;;;;;;;;;;;;;;10119301;28;19968;-62
2021/06/18 18:06:34;;;;;;;;;;;;;;;;;;10119197;28;20395;-63
2021/06/18 18:11:35;;;;;;;;;;;;;;;;;;10119476;28;20403;-62
2021/06/18 18:16:35;;;;;;;;;;;;;;;;;;10113635;28;20347;-62
2021/06/18 18:21:33;;;;;;;;;;;;;;;;;;10115929;28;20347;-63
2021/06/18 18:26:33;;;;;;;;;;;;;;;;;;10080536;28;20608;-61
2021/06/18 18:31:31;;;;;;;;;;;;;;;;;;10078730;28;19927;-61
2021/06/18 18:36:29;;;;;;;;;;;;;;;;;;10078145;29;20355;-62
2021/06/18 18:41:27;;;;;;;;;;;;;;;;;;10078790;29;20374;-62
2021/06/18 18:46:25;;;;;;;;;;;;;;;;;;10078171;29;20376;-62
2021/06/18 18:51:23;;;;;;;;;;;;;;;;;;10078685;28;19992;-62
2021/06/18 18:56:21;;;;;;;;;;;;;;;;;;10079681;28;19973;-61
2021/06/18 19:01:19;;;;;;;;;;;;;;;;;;10109822;28;19964;-62
2021/06/18 19:06:17;;;;;;;;;;;;;;;;;;10111655;28;20417;-62
2021/06/18 19:11:15;;;;;;;;;;;;;;;;;;10106424;28;19961;-61
2021/06/18 19:16:13;;;;;;;;;;;;;;;;;;10116779;28;19965;-62
2021/06/18 19:21:11;;;;;;;;;;;;;;;;;;10116767;28;20000;-62
2021/06/18 19:26:09;;;;;;;;;;;;;;;;;;10092134;28;20397;-62
2021/06/18 19:31:07;;;;;;;;;;;;;;;;;;10079501;28;20379;-62
2021/06/18 19:36:06;;;;;;;;;;;;;;;;;;10089430;28;19961;-62
2021/06/18 19:41:04;;;;;;;;;;;;;;;;;;10092939;28;20017;-61
2021/06/18 19:46:02;;;;;;;;;;;;;;;;;;10076007;28;19980;-62
2021/06/18 19:51:01;;;;;;;;;;;;;;;;;;10075935;28;19972;-61
2021/06/18 19:55:59;;;;;;;;;;;;;;;;;;10076232;29;19965;-63
2021/06/18 20:00:57;;;;;;;;;;;;;;;;;;10059422;29;20408;-63
2021/06/18 20:05:55;;;;;;;;;;;;;;;;;;10076142;29;19969;-61
2021/06/18 20:10:53;;;;;;;;;;;;;;;;;;10075828;29;19965;-63
2021/06/18 20:15:51;;;;;;;;;;;;;;;;;;10075852;29;19961;-62
2021/06/18 20:20:49;;;;;;;;;;;;;;;;;;10075803;29;19969;-63
2021/06/18 20:25:47;;;;;;;;;;;;;;;;;;10089032;28;19969;-62
2021/06/18 20:30:45;;;;;;;;;;;;;;;;;;10075633;29;19964;-63
2021/06/18 20:35:45;;;;;;;;;;;;;;;;;;10058146;29;19976;-62
2021/06/18 20:40:43;;;;;;;;;;;;;;;;;;10085703;28;19965;-62
2021/06/18 20:45:41;;;;;;;;;;;;;;;;;;10087101;28;19961;-62
2021/06/18 20:50:39;;;;;;;;;;;;;;;;;;10092341;28;19922;-61
2021/06/18 20:55:37;;;;;;;;;;;;;;;;;;10092543;28;19977;-63
2021/06/18 21:00:35;;;;;;;;;;;;;;;;;;10099685;28;19972;-62
2021/06/18 21:05:33;;;;;;;;;;;;;;;;;;10099136;28;19965;-63
2021/06/18 21:10:31;;;;;;;;;;;;;;;;;;10097931;28;19968;-62
2021/06/18 21:15:29;;;;;;;;;;;;;;;;;;10098310;28;19969;-62
2021/06/18 21:20:27;;;;;;;;;;;;;;;;;;10096370;28;20440;-63
2021/06/18 21:25:25;;;;;;;;;;;;;;;;;;10099339;28;20425;-61
2021/06/18 21:30:23;;;;;;;;;;;;;;;;;;10099342;28;19951;-61
2021/06/18 21:35:21;;;;;;;;;;;;;;;;;;10093880;28;19957;-63
2021/06/18 21:40:19;;;;;;;;;;;;;;;;;;10097069;28;19969;-64
2021/06/18 21:45:17;;;;;;;;;;;;;;;;;;10097275;28;19930;-62
2021/06/18 21:50:15;;;;;;;;;;;;;;;;;;10092667;28;19965;-61
2021/06/18 21:55:14;;;;;;;;;;;;;;;;;;10097739;28;19964;-61
2021/06/18 22:00:12;;;;;;;;;;;;;;;;;;10120712;28;19961;-62
2021/06/18 22:05:10;;;;;;;;;;;;;;;;;;10120662;28;19965;-62
2021/06/18 22:10:08;;;;;;;;;;;;;;;;;;10120211;28;19922;-62
2021/06/18 22:15:06;;;;;;;;;;;;;;;;;;10120267;28;19922;-62
2021/06/18 22:20:04;;;;;;;;;;;;;;;;;;10119222;28;19960;-61
2021/06/18 22:25:02;;;;;;;;;;;;;;;;;;10116838;28;19926;-62
2021/06/18 22:30:00;;;;;;;;;;;;;;;;;;10090072;28;20159;-63
2021/06/18 22:35:00;;;;;;;;;;;;;;;;;;10088891;28;19956;-62
2021/06/18 22:39:58;;;;;;;;;;;;;;;;;;10099557;28;20015;-62
2021/06/18 22:44:56;;;;;;;;;;;;;;;;;;10078709;28;20023;-63
2021/06/18 22:49:54;;;;;;;;;;;;;;;;;;10078784;29;19934;-63
2021/06/18 22:54:52;;;;;;;;;;;;;;;;;;10078647;29;19958;-62
2021/06/18 22:59:51;;;;;;;;;;;;;;;;;;10077491;28;20414;-62
2021/06/18 23:04:49;;;;;;;;;;;;;;;;;;10078150;29;20288;-62
2021/06/18 23:09:47;;;;;;;;;;;;;;;;;;10078218;29;19922;-62
2021/06/18 23:14:45;;;;;;;;;;;;;;;;;;10077488;29;20067;-62
2021/06/18 23:19:43;;;;;;;;;;;;;;;;;;10077507;28;19968;-63
2021/06/18 23:24:41;;;;;;;;;;;;;;;;;;10060397;29;19953;-63
2021/06/18 23:29:39;;;;;;;;;;;;;;;;;;10078487;29;19930;-63
2021/06/18 23:34:37;;;;;;;;;;;;;;;;;;10077412;29;19930;-62
2021/06/18 23:39:35;;;;;;;;;;;;;;;;;;10077101;29;19962;-62
2021/06/18 23:44:34;;;;;;;;;;;;;;;;;;10059734;29;19926;-62
2021/06/18 23:49:32;;;;;;;;;;;;;;;;;;10077067;29;19922;-63
2021/06/18 23:54:36;;;;;;;;;;;;;;;;;;10077013;29;19974;-63
2021/06/18 23:59:35;;;;;;;;;;;;;;;;;;10076694;29;19968;-63
